Latest Weather Observations for Minlaton Airport

IDS60801

Issued at 6:05 pm CDT Wednesday 22 October 2014 (issued every 30 minutes, with the page automatically refreshed every 10 minutes)

About weather observations | Map of weather stations | Latest weather observations for SA | Other Formats
Station Details ID: 022031 Name: MINLATON AERO Lat: -34.75 Lon: 137.53 Height: 32.0 m
Data from the previous 72 hours. | See also: Recent months at Minlaton Airport
Date/Time
CDT
Temp
°C
App
Temp
°C
Dew
Point
Rel
Hum
%
Delta-T
°C
Wind Press
QNH
hPa
Press
MSL
hPa
Rain
since 9 am
mm
Dir
 
Spd
km/h
Gust
km/h
Spd
kts
Gust
kts
22/06:00pm 19.6 14.7 12.4 63 4.0 S 30 41 16 22 1018.4 1018.4 0.0
22/05:30pm 21.1 15.8 12.5 58 4.9 S 32 41 17 22 1018.3 1018.3 0.0
22/05:00pm 22.6 17.4 12.8 54 5.6 S 32 41 17 22 1018.2 1018.2 0.0
22/04:30pm 23.4 17.6 11.5 47 6.7 S 33 44 18 24 1017.9 1017.9 0.0
22/04:00pm 24.3 18.8 11.9 45 7.0 S 32 43 17 23 1017.9 1017.9 0.0
22/03:30pm 24.0 18.5 11.7 46 6.9 S 32 46 17 25 1018.1 1018.1 0.0
22/03:10pm 24.7 19.4 11.3 43 7.5 S 30 54 16 29 1018.0 1018.0 0.0
22/03:00pm 24.1 18.8 11.1 44 7.3 S 30 39 16 21 1018.0 1018.0 0.0
22/02:30pm 24.2 17.8 10.8 43 7.5 S 35 43 19 23 1018.1 1018.1 0.0
22/02:00pm 24.8 19.3 11.7 44 7.4 S 32 46 17 25 1018.3 1018.3 0.0
22/01:30pm 23.9 17.8 11.9 47 6.8 S 35 46 19 25 1018.4 1018.4 0.0
22/01:00pm 24.8 19.1 11.7 44 7.4 S 33 46 18 25 1018.3 1018.3 0.0
22/12:30pm 25.5 19.7 10.9 40 8.2 S 32 43 17 23 1018.4 1018.4 0.0
22/12:00pm 25.3 19.7 11.5 42 7.8 S 32 41 17 22 1018.5 1018.5 0.0
22/11:30am 24.0 18.3 11.0 44 7.2 S 32 41 17 22 1018.6 1018.6 0.0
22/11:00am 23.9 19.0 11.2 44 7.1 S 28 39 15 21 1018.4 1018.4 0.0
22/10:30am 23.1 17.3 10.9 46 6.8 S 32 43 17 23 1018.4 1018.4 0.0
22/10:00am 23.3 17.6 11.0 46 6.8 S 32 43 17 23 1018.1 1018.1 0.0
22/09:30am 22.5 17.4 10.6 47 6.5 S 28 37 15 20 1017.8 1017.8 0.0
22/09:00am 21.0 15.4 11.6 55 5.2 S 32 43 17 23 1017.2 1017.2 0.0
22/08:30am 19.9 15.6 11.9 60 4.4 S 26 37 14 20 1017.1 1017.1 0.0
22/08:00am 18.7 14.4 12.2 66 3.6 S 26 35 14 19 1016.7 1016.7 0.0
22/07:30am 17.1 13.9 11.8 71 2.9 S 20 28 11 15 1016.5 1016.5 0.0
22/07:00am 15.4 12.1 10.8 74 2.4 S 19 22 10 12 1016.6 1016.6 0.0
22/06:30am 14.9 12.2 10.3 74 2.4 S 15 17 8 9 1016.3 1016.3 0.0
22/06:00am 15.8 12.7 10.3 70 2.9 S 17 20 9 11 1015.7 1015.7 0.0
22/05:30am 17.0 13.3 10.1 64 3.6 S 20 26 11 14 1015.7 1015.7 0.0
22/05:00am 15.4 11.6 8.9 65 3.3 S 19 20 10 11 1015.4 1015.4 0.0
22/04:30am 15.9 13.6 9.1 64 3.5 SSW 11 13 6 7 1015.2 1015.2 0.0
22/04:00am 17.8 14.1 9.4 58 4.4 SSE 19 20 10 11 1014.9 1014.9 0.0
22/03:30am 19.1 16.5 9.3 53 5.2 S 13 17 7 9 1015.0 1015.0 0.0
22/03:00am 19.5 15.1 7.6 46 6.1 E 20 24 11 13 1015.1 1015.1 0.0
22/02:30am 20.6 15.8 7.2 42 6.8 ESE 22 28 12 15 1014.6 1014.6 0.0
22/02:00am 20.3 15.7 6.3 40 7.0 ESE 20 26 11 14 1014.9 1014.9 0.0
22/01:30am 21.3 15.8 6.0 37 7.7 ESE 24 30 13 16 1015.2 1015.2 0.0
22/01:00am 22.6 16.6 5.1 32 8.7 SE 26 32 14 17 1015.6 1015.6 0.0
22/12:30am 23.8 18.2 5.2 30 9.3 SE 24 32 13 17 1016.1 1016.1 0.0
22/12:00am 24.3 17.9 5.1 29 9.7 S 28 35 15 19 1016.5 1016.5 0.0
 
Date/Time
CDT
Temp
°C
App
Temp
°C
Dew
Point
Rel
Hum
%
Delta-T
°C
Wind Press
QNH
hPa
Press
MSL
hPa
Rain
since 9 am
mm
Dir
 
Spd
km/h
Gust
km/h
Spd
kts
Gust
kts
21/11:37pm 23.8 17.1 3.7 27 9.8 SSW 28 46 15 25 1016.8 1016.8 0.0
21/11:33pm 23.1 15.7 4.1 29 9.3 SSW 32 46 17 25 1016.5 1016.5 0.0
21/11:30pm 22.9 17.9 3.4 28 9.4 E 19 20 10 11 1016.2 1016.2 0.0
21/11:00pm 23.1 17.1 3.6 28 9.5 E 24 30 13 16 1015.8 1015.8 0.0
21/10:30pm 23.6 17.5 3.0 26 9.9 E 24 30 13 16 1015.9 1015.9 0.0
21/10:00pm 23.5 18.3 3.4 27 9.8 ESE 20 22 11 12 1015.9 1015.9 0.0
21/09:30pm 23.8 19.5 3.2 26 10.0 ESE 15 17 8 9 1016.0 1016.0 0.0
21/09:00pm 23.3 18.3 4.8 30 9.2 SE 20 20 11 11 1015.9 1015.9 0.0
21/08:30pm 23.5 20.2 6.3 33 8.8 S 13 19 7 10 1016.1 1016.1 0.0
21/08:00pm 25.3 21.4 3.3 24 10.8 ESE 13 13 7 7 1016.0 1016.0 0.0
21/07:30pm 25.5 22.2 4.6 26 10.5 ESE 11 13 6 7 1016.0 1016.0 0.0
21/07:00pm 27.1 25.4 4.2 23 11.6 WSW 2 7 1 4 1016.2 1016.2 0.0
21/06:30pm 28.2 25.0 5.1 23 11.9 SSW 11 13 6 7 1015.8 1015.8 0.0
21/06:00pm 29.1 25.8 4.6 21 12.6 WSW 11 20 6 11 1015.7 1015.7 0.0
21/05:30pm 33.4 28.0 1.3 13 16.0 WSW 19 22 10 12 1015.4 1015.4 0.0
21/05:00pm 33.4 28.8 1.3 13 16.0 WSW 15 22 8 12 1015.5 1015.5 0.0
21/04:30pm 36.2 29.4 -1.7 9 18.4 N 24 30 13 16 1015.4 1015.4 0.0
21/04:00pm 35.9 29.1 -1.9 9 18.2 NNW 24 32 13 17 1015.6 1015.6 0.0
21/03:30pm 38.4 32.4 -1.6 8 19.7 NNW 20 30 11 16 1015.8 1015.8 0.0
21/03:00pm 37.5 30.3 -2.3 8 19.3 N 26 33 14 18 1016.1 1016.1 0.0
21/02:30pm 38.0 30.8 -1.9 8 19.5 N 26 35 14 19 1016.5 1016.5 0.0
21/02:00pm 36.8 29.3 -1.2 9 18.6 N 28 35 15 19 1017.0 1017.0 0.0
21/01:30pm 36.7 28.8 -1.3 9 18.6 N 30 39 16 21 1017.4 1017.4 0.0
21/01:00pm 35.0 28.9 2.5 13 16.7 NNW 24 32 13 17 1017.8 1017.8 0.0
21/12:30pm 34.9 28.0 0.1 11 17.2 N 26 35 14 19 1017.9 1017.9 0.0
21/12:00pm 33.9 28.7 2.7 14 16.0 N 19 28 10 15 1018.3 1018.3 0.0
21/11:30am 32.7 28.3 2.7 15 15.2 NNW 15 20 8 11 1018.4 1018.4 0.0
21/11:00am 31.5 27.0 4.3 18 14.1 NW 17 20 9 11 1018.4 1018.4 0.0
21/10:30am 34.7 26.4 -1.4 10 17.4 N 32 44 17 24 1018.3 1018.3 0.0
21/10:00am 32.6 24.6 0.6 13 15.7 NNE 32 43 17 23 1018.5 1018.5 0.0
21/09:30am 30.1 22.1 0.6 15 14.2 NNE 32 41 17 22 1018.6 1018.6 0.0
21/09:00am 29.2 20.6 2.5 18 13.2 NE 37 50 20 27 1018.4 1018.4 0.0
21/08:30am 26.7 18.5 2.6 21 11.8 NE 35 46 19 25 1018.2 1018.2 0.0
21/08:00am 25.6 17.4 2.9 23 11.1 NE 35 46 19 25 1018.1 1018.1 0.0
21/07:30am 23.0 16.0 4.0 29 9.3 ENE 30 37 16 20 1017.9 1017.9 0.0
21/07:00am 22.0 15.1 4.6 32 8.5 ENE 30 39 16 21 1017.5 1017.5 0.0
21/06:30am 21.7 14.3 3.9 31 8.6 ENE 32 37 17 20 1017.2 1017.2 0.0
21/06:00am 22.0 14.5 3.2 29 9.0 ENE 32 39 17 21 1017.0 1017.0 0.0
21/05:30am 22.2 14.4 2.8 28 9.2 ENE 33 43 18 23 1016.8 1016.8 0.0
21/05:00am 21.6 13.9 3.3 30 8.7 ENE 33 43 18 23 1016.8 1016.8 0.0
21/04:30am 21.0 13.4 3.7 32 8.3 E 33 39 18 21 1016.8 1016.8 0.0
21/04:00am 21.3 13.9 4.0 32 8.4 ENE 32 39 17 21 1017.0 1017.0 0.0
21/03:30am 22.0 14.4 4.1 31 8.7 ENE 33 43 18 23 1017.1 1017.1 0.0
21/03:00am 22.6 14.6 3.7 29 9.1 ENE 35 43 19 23 1017.4 1017.4 0.0
21/02:30am 22.6 15.1 4.2 30 9.0 ENE 33 43 18 23 1017.7 1017.7 0.0
21/02:00am 22.6 15.2 4.2 30 9.0 ENE 32 41 17 22 1018.1 1018.1 0.0
21/01:30am 22.3 15.4 4.8 32 8.6 ENE 30 39 16 21 1018.6 1018.6 0.0
21/01:00am 21.9 14.9 5.8 35 8.1 ENE 32 39 17 21 1018.9 1018.9 0.0
21/12:30am 22.4 15.2 5.8 34 8.3 ENE 33 41 18 22 1019.1 1019.1 0.0
21/12:00am 21.4 15.1 7.3 40 7.2 E 30 37 16 20 1019.3 1019.3 0.0
 
Date/Time
CDT
Temp
°C
App
Temp
°C
Dew
Point
Rel
Hum
%
Delta-T
°C
Wind Press
QNH
hPa
Press
MSL
hPa
Rain
since 9 am
mm
Dir
 
Spd
km/h
Gust
km/h
Spd
kts
Gust
kts
20/11:30pm 21.0 14.5 8.0 43 6.7 E 32 35 17 19 1019.4 1019.4 0.0
20/11:00pm 21.3 15.2 8.2 43 6.9 E 30 35 16 19 1019.6 1019.6 0.0
20/10:30pm 22.5 16.8 8.2 40 7.5 E 28 35 15 19 1019.8 1019.8 0.0
20/10:00pm 21.6 16.7 9.8 47 6.4 E 26 35 14 19 1019.9 1019.9 0.0
20/09:30pm 20.8 16.2 10.9 53 5.4 E 26 32 14 17 1020.1 1020.1 0.0
20/09:00pm 19.9 14.7 11.7 59 4.5 E 30 33 16 18 1019.8 1019.8 0.0
20/08:30pm 20.4 15.6 11.6 57 4.9 E 28 35 15 19 1019.8 1019.8 0.0
20/08:00pm 21.1 15.9 11.7 55 5.2 ESE 30 37 16 20 1019.6 1019.6 0.0
20/07:30pm 22.2 17.6 11.0 49 6.2 ESE 26 32 14 17 1019.5 1019.5 0.0
20/07:00pm 23.9 19.4 10.2 42 7.5 ESE 24 35 13 19 1019.1 1019.1 0.0
20/06:30pm 26.1 21.3 9.0 34 9.3 SE 24 33 13 18 1019.1 1019.1 0.0
20/06:00pm 27.1 21.6 9.0 32 9.9 SE 28 35 15 19 1019.0 1019.0 0.0
20/05:30pm 28.4 22.1 7.6 27 11.2 SE 30 37 16 20 1019.0 1019.0 0.0
20/05:00pm 29.5 24.2 8.5 27 11.6 SE 26 32 14 17 1019.2 1019.2 0.0
20/04:30pm 30.4 25.1 7.0 23 12.6 ESE 24 32 13 17 1019.3 1019.3 0.0
20/04:00pm 30.6 25.4 7.1 23 12.7 ESE 24 32 13 17 1019.7 1019.7 0.0
20/03:30pm 29.9 24.8 5.9 22 12.6 ESE 22 32 12 17 1020.0 1020.0 0.0
20/03:00pm 30.0 24.8 7.2 24 12.3 ESE 24 33 13 18 1020.2 1020.2 0.0
20/02:30pm 29.9 25.1 7.2 24 12.2 E 22 32 12 17 1020.7 1020.7 0.0
20/02:00pm 29.6 24.7 6.9 24 12.2 E 22 32 12 17 1021.1 1021.1 0.0
20/01:30pm 29.5 24.6 6.8 24 12.1 ENE 22 30 12 16 1021.5 1021.5 0.0
20/01:00pm 29.0 24.0 6.4 24 12.0 E 22 32 12 17 1021.7 1021.7 0.0
20/12:30pm 28.0 22.4 7.3 27 11.0 E 26 33 14 18 1022.0 1022.0 0.0
20/12:00pm 26.1 21.0 7.7 31 9.8 E 24 35 13 19 1022.4 1022.4 0.0
20/11:30am 25.1 20.0 7.7 33 9.2 E 24 32 13 17 1022.9 1022.9 0.0
20/11:00am 22.5 16.5 8.6 41 7.4 E 30 39 16 21 1023.3 1023.3 0.0
20/10:30am 22.6 18.0 8.3 40 7.5 E 22 32 12 17 1023.5 1023.5 0.0
20/10:00am 21.7 15.2 8.9 44 6.8 E 33 46 18 25 1023.1 1023.1 0.0
20/09:30am 20.2 13.5 9.5 50 5.7 E 35 48 19 26 1022.9 1022.9 0.0
20/09:11am 19.4 12.7 9.6 53 5.2 E 35 54 19 29 1022.8 1022.8 0.0
20/09:00am 19.0 14.1 9.8 55 4.9 E 26 39 14 21 1023.1 1023.1 0.0
20/08:30am 17.5 12.5 11.1 66 3.4 E 28 43 15 23 1023.1 1023.1 0.0
20/08:00am 15.9 12.8 12.1 78 2.1 ESE 20 28 11 15 1023.1 1023.1 0.0
20/07:30am 14.1 12.2 11.8 86 1.2 SE 13 17 7 9 1022.8 1022.8 0.0
20/07:00am 13.0 9.8 11.1 88 1.0 ESE 19 22 10 12 1022.7 1022.7 0.0
20/06:30am 12.9 9.6 11.0 88 1.0 SE 19 22 10 12 1022.8 1022.8 0.0
20/06:00am 12.9 9.6 11.0 88 1.0 ESE 19 24 10 13 1022.6 1022.6 0.0
20/05:30am 12.9 9.7 11.1 89 0.9 SE 19 24 10 13 1022.5 1022.5 0.0
20/05:00am 13.1 10.3 11.2 88 1.0 SE 17 22 9 12 1022.4 1022.4 0.0
20/04:30am 13.3 10.5 11.4 88 1.0 ESE 17 24 9 13 1022.2 1022.2 0.0
20/04:00am 13.6 11.2 11.3 86 1.2 SE 15 22 8 12 1022.0 1022.0 0.0
20/03:30am 13.9 9.8 11.6 86 1.2 ESE 24 35 13 19 1021.7 1021.7 0.0
20/03:00am 14.3 8.2 11.8 85 1.3 ESE 35 50 19 27 1021.5 1021.5 0.0
20/02:30am 14.3 7.5 11.8 85 1.3 ESE 39 52 21 28 1021.4 1021.4 0.0
20/02:00am 14.2 8.5 11.7 85 1.3 ESE 33 44 18 24 1021.8 1021.8 0.0
20/01:30am 14.1 9.3 11.8 86 1.2 SE 28 39 15 21 1022.2 1022.2 0.0
20/01:00am 14.0 10.0 11.7 86 1.2 SE 24 32 13 17 1022.5 1022.5 0.0
20/12:30am 14.0 10.0 11.7 86 1.2 SE 24 33 13 18 1022.6 1022.6 0.0
20/12:00am 14.0 9.6 11.7 86 1.2 SE 26 33 14 18 1022.9 1022.9 0.0
 
Date/Time
CDT
Temp
°C
App
Temp
°C
Dew
Point
Rel
Hum
%
Delta-T
°C
Wind Press
QNH
hPa
Press
MSL
hPa
Rain
since 9 am
mm
Dir
 
Spd
km/h
Gust
km/h
Spd
kts
Gust
kts
19/11:30pm 14.2 9.4 11.7 85 1.3 SE 28 35 15 19 1022.9 1022.9 0.0
19/11:00pm 14.4 9.6 11.7 84 1.5 SE 28 35 15 19 1023.0 1023.0 0.0
19/10:30pm 14.6 9.8 11.6 82 1.6 SE 28 37 15 20 1022.9 1022.9 0.0
19/10:00pm 15.0 9.6 11.0 77 2.1 SE 30 43 16 23 1022.7 1022.7 0.0
19/09:30pm 15.2 9.3 10.6 74 2.4 SE 32 44 17 24 1022.3 1022.3 0.0
19/09:00pm 15.1 9.8 11.1 77 2.1 SE 30 41 16 22 1022.3 1022.3 0.0
19/08:30pm 15.1 10.4 12.1 82 1.6 SE 28 37 15 20 1022.3 1022.3 0.0
19/08:00pm 15.3 9.8 11.9 80 1.8 SE 32 43 17 23 1021.8 1021.8 0.0
19/07:30pm 15.9 10.9 12.1 78 2.1 SE 30 43 16 23 1021.9 1021.9 0.0
19/07:00pm 16.7 11.0 11.8 73 2.7 SSE 33 44 18 24 1021.5 1021.5 0.0
19/06:30pm 17.9 11.0 11.7 67 3.4 SE 39 54 21 29 1021.1 1021.1 0.0

Other Formats:

Comma delimited format used in spreadsheet applications
http://www.bom.gov.au/fwo/IDS60801/IDS60801.95659.axf

JavaScript Object Notation format (JSON) in row-major order
http://www.bom.gov.au/fwo/IDS60801/IDS60801.95659.json